Time;durP1;ratioP1;P1;durP2;ratioP2;P2;SDS_P1;SDS_P2;PMS_P1;PMS_P2;Temp;Humidity;BMP_temperature;BMP_pressure;BME280_temperature;BME280_humidity;BME280_pressure;Samples;Min_cycle;Max_cycle;Signal;HPM_P1;HPM_P2
2023/07/08 00:03:19;;;;;;;15.10;6.55;;;17.00;99.90;;;;;;10446435;28;20199;-84
2023/07/08 00:08:40;;;;;;;9.20;5.00;;;16.90;99.90;;;;;;10443322;28;20264;-85
2023/07/08 00:14:01;;;;;;;8.38;4.55;;;16.80;99.90;;;;;;10440815;28;20215;-84
2023/07/08 00:19:23;;;;;;;13.52;6.57;;;16.80;99.90;;;;;;10448970;28;20486;-82
2023/07/08 00:24:45;;;;;;;15.55;6.80;;;16.80;99.90;;;;;;10466533;28;20596;-84
2023/07/08 00:30:31;;;;;;;10.90;6.65;;;16.80;99.90;;;;;;10480233;28;20281;-83
2023/07/08 00:35:52;;;;;;;12.07;6.40;;;16.70;99.90;;;;;;10474755;28;20218;-84
2023/07/08 00:41:36;;;;;;;10.73;5.70;;;16.60;99.90;;;;;;10480290;28;20221;-83
2023/07/08 00:47:09;;;;;;;8.43;5.20;;;16.60;99.90;;;;;;10479504;28;20229;-84
2023/07/08 00:52:30;;;;;;;5.75;4.47;;;16.60;97.60;;;;;;10420758;28;20253;-84
2023/07/08 00:57:53;;;;;;;6.55;4.47;;;;;;;;;;10461357;28;20218;-84
2023/07/08 01:03:14;;;;;;;7.07;4.55;;;16.40;99.90;;;;;;10461977;28;20201;-84
2023/07/08 01:08:35;;;;;;;5.65;3.90;;;16.30;99.90;;;;;;10459268;28;20230;-83
2023/07/08 01:13:59;;;;;;;5.65;4.07;;;16.20;99.90;;;;;;10432629;28;20203;-83
2023/07/08 01:19:32;;;;;;;7.15;4.55;;;16.30;99.90;;;;;;10463962;28;20226;-84
2023/07/08 01:24:53;;;;;;;5.30;4.25;;;16.40;99.90;;;;;;10444933;28;20287;-84
2023/07/08 01:30:16;;;;;;;8.27;5.07;;;16.30;99.90;;;;;;10477880;28;20431;-84
2023/07/08 01:35:37;;;;;;;6.75;5.35;;;16.30;99.90;;;;;;10463688;28;20513;-84
2023/07/08 01:40:59;;;;;;;7.55;4.47;;;16.20;99.90;;;;;;10452091;28;20206;-84
2023/07/08 01:46:24;;;;;;;7.18;4.55;;;16.20;99.90;;;;;;10421870;28;20530;-84
2023/07/08 01:51:47;;;;;;;13.43;4.93;;;16.00;99.90;;;;;;10438600;28;20222;-83
2023/07/08 01:57:08;;;;;;;6.38;4.10;;;15.90;99.90;;;;;;10461752;28;20195;-84
2023/07/08 02:02:30;;;;;;;6.70;4.45;;;15.80;99.90;;;;;;10458853;28;20204;-84
2023/07/08 02:07:51;;;;;;;6.13;3.47;;;15.80;99.90;;;;;;10460420;28;20256;-84
2023/07/08 02:13:12;;;;;;;4.68;3.55;;;15.80;99.90;;;;;;10452977;28;20206;-84
2023/07/08 02:18:33;;;;;;;6.30;3.88;;;15.70;99.90;;;;;;10458239;28;20200;-84
2023/07/08 02:23:55;;;;;;;5.07;3.78;;;;;;;;;;10454388;28;20213;-83
2023/07/08 02:29:17;;;;;;;7.38;4.55;;;15.50;99.90;;;;;;10484329;28;20494;-84
2023/07/08 02:34:38;;;;;;;5.80;4.15;;;15.50;99.90;;;;;;10456979;28;20286;-84
2023/07/08 02:40:01;;;;;;;9.57;5.20;;;15.50;1.00;;;;;;10439864;28;20201;-83
2023/07/08 02:45:23;;;;;;;7.60;4.35;;;15.40;99.90;;;;;;10467759;28;20222;-84
2023/07/08 02:50:44;;;;;;;5.57;3.70;;;15.40;99.90;;;;;;10456436;28;20218;-84
2023/07/08 02:56:06;;;;;;;7.13;4.38;;;15.30;1.00;;;;;;10447476;28;20205;-84
2023/07/08 03:01:27;;;;;;;5.45;4.15;;;15.40;1.00;;;;;;10456469;28;20198;-84
2023/07/08 03:06:50;;;;;;;6.72;3.72;;;15.40;1.00;;;;;;10469125;28;20221;-84
2023/07/08 03:12:11;;;;;;;6.18;3.70;;;15.40;1.00;;;;;;10468414;28;20194;-84
2023/07/08 03:17:33;;;;;;;5.85;4.13;;;15.40;99.90;;;;;;10446621;28;20254;-84
2023/07/08 03:22:54;;;;;;;4.95;3.65;;;15.50;99.90;;;;;;10453653;28;20210;-85
2023/07/08 03:28:16;;;;;;;4.70;3.60;;;15.50;99.90;;;;;;10473866;28;20242;-84
2023/07/08 03:33:38;;;;;;;6.05;4.03;;;15.60;1.00;;;;;;10459036;28;20275;-83
2023/07/08 03:39:00;;;;;;;5.25;3.42;;;15.70;99.90;;;;;;10481451;28;20194;-84
2023/07/08 03:44:21;;;;;;;4.53;3.13;;;15.70;99.90;;;;;;10467646;28;20519;-84
2023/07/08 03:49:43;;;;;;;6.15;3.00;;;15.80;99.90;;;;;;10448846;28;20242;-83
2023/07/08 03:55:05;;;;;;;4.95;3.72;;;15.80;99.90;;;;;;10481118;28;20203;-83
2023/07/08 04:00:29;;;;;;;6.05;3.78;;;15.90;99.90;;;;;;10433253;28;20202;-84
2023/07/08 04:05:52;;;;;;;7.35;4.00;;;16.00;99.90;;;;;;10453730;28;20319;-84
2023/07/08 04:11:16;;;;;;;6.00;3.53;;;16.10;99.90;;;;;;10466617;28;20209;-83
2023/07/08 04:16:51;;;;;;;6.88;3.70;;;16.20;99.90;;;;;;10461148;28;20226;-83
2023/07/08 04:22:12;;;;;;;7.40;3.40;;;16.30;97.80;;;;;;10462685;28;20410;-84
2023/07/08 04:27:33;;;;;;;3.60;2.85;;;16.40;18.40;;;;;;10479975;28;20534;-84
2023/07/08 04:32:55;;;;;;;9.02;4.55;;;16.60;1.00;;;;;;10446736;28;20485;-83
2023/07/08 04:38:23;;;;;;;16.77;7.40;;;16.70;1.00;;;;;;10464318;28;20419;-84
2023/07/08 04:43:44;;;;;;;15.07;7.50;;;16.80;1.00;;;;;;10440646;28;20292;-84
2023/07/08 04:49:07;;;;;;;10.55;5.95;;;17.00;1.00;;;;;;10495891;28;20258;-83
2023/07/08 04:54:28;;;;;;;9.07;4.25;;;17.20;1.00;;;;;;10478613;28;20497;-84
2023/07/08 04:59:50;;;;;;;8.05;4.50;;;17.40;1.00;;;;;;10457008;28;20234;-83
2023/07/08 05:05:11;;;;;;;5.55;3.70;;;17.60;1.00;;;;;;10463125;28;20223;-84
2023/07/08 05:10:33;;;;;;;4.88;2.95;;;17.80;1.00;;;;;;10464013;28;20199;-84
2023/07/08 05:15:55;;;;;;;4.93;3.28;;;18.10;1.00;;;;;;10459490;28;20207;-84
2023/07/08 05:21:19;;;;;;;3.45;2.65;;;18.30;1.00;;;;;;10442069;28;20205;-84
2023/07/08 05:26:40;;;;;;;3.15;2.38;;;18.50;1.00;;;;;;10430062;28;20277;-84
2023/07/08 05:32:01;;;;;;;2.22;1.38;;;18.70;1.00;;;;;;10444749;28;20486;-84
2023/07/08 05:37:25;;;;;;;1.80;1.35;;;18.90;1.00;;;;;;10449268;28;20390;-85
2023/07/08 05:42:46;;;;;;;1.60;1.50;;;19.00;1.00;;;;;;10463209;28;20192;-84
2023/07/08 05:48:07;;;;;;;3.47;1.75;;;19.10;99.90;;;;;;10507902;28;20226;-84
2023/07/08 05:53:28;;;;;;;2.20;1.67;;;19.30;99.90;;;;;;10476554;28;20200;-84
2023/07/08 05:58:50;;;;;;;1.88;1.55;;;19.50;99.90;;;;;;10449154;28;20188;-84
2023/07/08 06:04:11;;;;;;;3.83;1.83;;;19.70;99.90;;;;;;10455542;28;20196;-84
2023/07/08 06:09:33;;;;;;;3.90;2.20;;;19.90;99.90;;;;;;10462448;28;20199;-84
2023/07/08 06:14:54;;;;;;;2.97;1.90;;;20.20;99.90;;;;;;10457447;28;20493;-83
2023/07/08 06:20:16;;;;;;;4.07;1.80;;;20.30;99.90;;;;;;10476552;28;20195;-84
2023/07/08 06:25:37;;;;;;;3.67;1.90;;;20.50;99.90;;;;;;10470009;28;20219;-83
2023/07/08 06:30:59;;;;;;;5.38;1.88;;;20.70;99.90;;;;;;10462578;28;20196;-83
2023/07/08 06:36:20;;;;;;;2.00;1.83;;;21.00;99.90;;;;;;10461837;28;20363;-84
2023/07/08 06:41:42;;;;;;;3.30;1.80;;;21.30;99.90;;;;;;10478415;28;20237;-83
2023/07/08 06:47:03;;;;;;;1.70;1.60;;;21.70;99.90;;;;;;10448025;28;20231;-84
2023/07/08 06:52:24;;;;;;;2.50;1.88;;;22.20;99.90;;;;;;10454067;28;20383;-84
2023/07/08 06:57:47;;;;;;;3.92;2.03;;;22.80;99.90;;;;;;10434710;28;20205;-83
2023/07/08 07:03:09;;;;;;;4.18;2.05;;;23.40;99.90;;;;;;10428951;28;20482;-83
2023/07/08 07:08:30;;;;;;;4.05;2.20;;;24.00;99.90;;;;;;10433083;28;20283;-83
2023/07/08 07:13:51;;;;;;;4.88;2.05;;;24.50;99.90;;;;;;10461421;28;20192;-84
2023/07/08 07:19:13;;;;;;;2.63;1.90;;;24.90;99.90;;;;;;10459512;28;20200;-83
2023/07/08 07:24:34;;;;;;;3.08;1.70;;;25.30;99.90;;;;;;10441594;28;20209;-84
2023/07/08 07:29:59;;;;;;;1.95;1.45;;;25.80;99.90;;;;;;10427044;28;20428;-83
2023/07/08 07:35:22;;;;;;;4.30;1.70;;;26.20;99.90;;;;;;10445256;28;20346;-84
2023/07/08 07:40:45;;;;;;;5.20;1.77;;;26.40;99.90;;;;;;10467760;28;20237;-84
2023/07/08 07:46:07;;;;;;;2.20;1.88;;;;;;;;;;10467433;28;20278;-85
2023/07/08 07:51:28;;;;;;;2.67;2.00;;;27.00;99.90;;;;;;10458477;28;20227;-84
2023/07/08 07:56:50;;;;;;;3.00;1.90;;;27.40;99.90;;;;;;10440080;28;20200;-84
2023/07/08 08:02:11;;;;;;;2.70;1.60;;;27.40;99.90;;;;;;10441241;28;20193;-85
2023/07/08 08:07:33;;;;;;;7.60;1.90;;;27.20;99.90;;;;;;10436978;28;20233;-84
2023/07/08 08:12:54;;;;;;;3.00;2.10;;;26.80;99.90;;;;;;10466064;28;20183;-85
2023/07/08 08:18:15;;;;;;;2.58;1.55;;;27.10;99.90;;;;;;10438405;28;20205;-85
2023/07/08 08:23:37;;;;;;;9.07;2.00;;;27.10;99.90;;;;;;10470926;28;20206;-85
2023/07/08 08:28:58;;;;;;;5.05;1.70;;;26.90;99.90;;;;;;10465661;28;20231;-84
2023/07/08 08:34:20;;;;;;;2.03;1.83;;;;;;;;;;10480324;28;20184;-85
2023/07/08 08:39:41;;;;;;;4.72;2.35;;;28.20;1.00;;;;;;10466482;28;20299;-84
2023/07/08 08:45:03;;;;;;;13.48;2.63;;;28.40;99.90;;;;;;10478590;28;20230;-85
2023/07/08 08:50:43;;;;;;;7.63;2.70;;;28.80;99.90;;;;;;10465000;28;20231;-85
2023/07/08 08:56:20;;;;;;;6.05;1.70;;;29.20;99.90;;;;;;10479641;28;20392;-84
2023/07/08 09:01:42;;;;;;;3.08;1.60;;;29.30;99.90;;;;;;10478728;28;20409;-83
2023/07/08 09:07:14;;;;;;;5.85;1.67;;;28.80;99.90;;;;;;10478538;28;20219;-85
2023/07/08 09:12:35;;;;;;;2.28;1.75;;;;;;;;;;10462596;28;20195;-84
2023/07/08 09:18:16;;;;;;;3.38;1.60;;;29.80;1.00;;;;;;10438236;28;20204;-85
2023/07/08 09:23:38;;;;;;;4.25;1.90;;;29.60;99.90;;;;;;10473875;28;20200;-84
2023/07/08 09:28:59;;;;;;;3.30;1.50;;;29.20;99.90;;;;;;10441464;28;20252;-85
2023/07/08 09:34:38;;;;;;;4.05;1.77;;;29.00;99.90;;;;;;10438294;28;20191;-85
2023/07/08 09:40:02;;;;;;;3.40;1.70;;;28.80;99.90;;;;;;10437619;28;20211;-85
2023/07/08 09:45:26;;;;;;;2.53;1.52;;;28.60;99.90;;;;;;10497124;28;20230;-84
2023/07/08 09:50:51;;;;;;;5.78;1.80;;;28.40;99.90;;;;;;10508514;28;20231;-84
2023/07/08 09:56:12;;;;;;;3.25;1.75;;;28.10;99.90;;;;;;10425135;28;20246;-85
2023/07/08 10:01:35;;;;;;;3.90;1.73;;;28.00;99.90;;;;;;10449444;28;20210;-85
2023/07/08 10:06:56;;;;;;;2.92;2.15;;;28.30;99.90;;;;;;10438215;28;20441;-84
2023/07/08 10:12:18;;;;;;;4.50;1.90;;;29.10;99.90;;;;;;10420987;28;20545;-84
2023/07/08 10:17:41;;;;;;;2.80;1.92;;;29.30;99.90;;;;;;10432760;28;20443;-83
2023/07/08 10:23:22;;;;;;;3.85;1.95;;;29.50;99.90;;;;;;10445535;28;20206;-84
2023/07/08 10:29:17;;;;;;;4.40;2.85;;;29.30;99.90;;;;;;10434725;28;20219;-83
2023/07/08 10:34:57;;;;;;;7.18;2.30;;;29.50;99.90;;;;;;10445056;28;20210;-83
2023/07/08 10:40:24;;;;;;;2.20;1.92;;;30.20;99.90;;;;;;10486507;28;20200;-83
2023/07/08 10:45:53;;;;;;;5.50;2.10;;;30.60;99.90;;;;;;10451754;28;20453;-84
2023/07/08 10:51:45;;;;;;;6.72;2.08;;;30.60;99.90;;;;;;10438588;28;20303;-84
2023/07/08 10:57:40;;;;;;;3.45;2.17;;;30.50;99.90;;;;;;10424438;28;20425;-84
2023/07/08 11:03:11;;;;;;;2.80;2.00;;;30.00;99.90;;;;;;10449977;28;20537;-83
2023/07/08 11:08:43;;;;;;;6.50;1.85;;;29.80;99.90;;;;;;10468804;28;20235;-84
2023/07/08 11:14:29;;;;;;;3.97;2.17;;;30.10;99.90;;;;;;10467251;28;20235;-84
2023/07/08 11:20:21;;;;;;;4.95;2.17;;;30.70;99.90;;;;;;10367615;28;20228;-85
2023/07/08 11:25:45;;;;;;;4.53;2.05;;;31.70;99.90;;;;;;10380986;28;20351;-85
2023/07/08 11:31:07;;;;;;;3.60;2.10;;;31.60;99.90;;;;;;10359298;28;20547;-86
2023/07/08 11:36:30;;;;;;;6.78;2.30;;;31.30;99.90;;;;;;10356581;28;20424;-85
2023/07/08 11:41:54;;;;;;;3.78;2.25;;;30.80;99.90;;;;;;10354979;28;20197;-86
2023/07/08 11:47:32;;;;;;;2.35;2.10;;;30.10;99.90;;;;;;10378685;28;20555;-84
2023/07/08 11:53:07;;;;;;;2.72;2.13;;;29.00;99.90;;;;;;10366331;28;20235;-86
2023/07/08 11:58:32;;;;;;;2.92;1.77;;;28.50;99.90;;;;;;10438680;28;20560;-85
2023/07/08 12:04:16;;;;;;;2.75;2.00;;;28.40;99.90;;;;;;10441064;28;20225;-85
2023/07/08 12:09:45;;;;;;;2.80;1.85;;;28.20;99.90;;;;;;10466289;28;20226;-84
2023/07/08 12:15:10;;;;;;;3.70;1.83;;;28.30;99.90;;;;;;10448733;28;20196;-85
2023/07/08 12:20:35;;;;;;;1.80;1.70;;;28.90;99.90;;;;;;10437123;28;20231;-85
2023/07/08 12:25:57;;;;;;;3.58;1.90;;;29.30;99.90;;;;;;10438679;28;20274;-84
2023/07/08 12:31:21;;;;;;;2.00;1.60;;;29.40;99.90;;;;;;10442717;28;20208;-85
2023/07/08 12:36:45;;;;;;;4.97;1.70;;;29.50;99.90;;;;;;10449226;28;20195;-84
2023/07/08 12:42:11;;;;;;;3.22;1.52;;;29.30;99.90;;;;;;10475311;28;20317;-85
2023/07/08 12:47:32;;;;;;;4.50;1.42;;;29.30;99.90;;;;;;10465274;28;20235;-84
2023/07/08 12:52:54;;;;;;;2.47;1.67;;;29.30;99.90;;;;;;10463191;28;20257;-84
2023/07/08 12:58:28;;;;;;;2.42;1.63;;;29.50;99.90;;;;;;10437593;28;20288;-85
2023/07/08 13:03:52;;;;;;;7.07;1.75;;;29.70;99.90;;;;;;10468526;28;20207;-85
2023/07/08 13:09:30;;;;;;;1.85;1.40;;;29.90;99.90;;;;;;10448042;28;20526;-84
2023/07/08 13:14:54;;;;;;;2.72;1.30;;;29.90;99.90;;;;;;10478299;28;20192;-84
2023/07/08 13:20:17;;;;;;;2.28;1.50;;;29.70;99.90;;;;;;10463580;28;20279;-84
2023/07/08 13:25:39;;;;;;;2.30;1.40;;;29.60;99.90;;;;;;10431647;28;20410;-84
2023/07/08 13:31:02;;;;;;;8.75;2.58;;;29.90;99.90;;;;;;10460529;28;20395;-84
2023/07/08 13:36:32;;;;;;;3.65;1.65;;;30.00;99.90;;;;;;10477113;28;20573;-85
2023/07/08 13:41:54;;;;;;;1.40;1.27;;;29.90;99.90;;;;;;10463004;28;20271;-84
2023/07/08 13:47:27;;;;;;;1.70;1.27;;;29.90;99.90;;;;;;10505849;28;20659;-85
2023/07/08 13:52:54;;;;;;;2.08;1.35;;;29.70;99.90;;;;;;10469138;28;20239;-84
2023/07/08 13:58:17;;;;;;;1.92;1.45;;;29.70;99.90;;;;;;10436055;28;20235;-84
2023/07/08 14:03:39;;;;;;;2.15;1.40;;;29.60;99.90;;;;;;10424393;28;20502;-85
2023/07/08 14:09:17;;;;;;;6.15;1.60;;;29.60;99.90;;;;;;10448682;28;20226;-84
2023/07/08 14:14:39;;;;;;;2.17;1.70;;;29.50;99.90;;;;;;10442503;28;20454;-84
2023/07/08 14:20:00;;;;;;;2.42;1.40;;;29.30;99.90;;;;;;10454289;28;20200;-84
2023/07/08 14:25:23;;;;;;;1.77;1.20;;;29.00;99.90;;;;;;10429564;28;20279;-84
2023/07/08 14:37:23;;;;;;;3.88;1.60;;;28.50;99.90;;;;;;10476393;28;20188;-84
2023/07/08 14:42:45;;;;;;;1.45;1.20;;;28.30;99.90;;;;;;10479485;28;20266;-84
2023/07/08 14:48:11;;;;;;;1.85;1.30;;;28.30;99.90;;;;;;10495274;28;20222;-84
2023/07/08 14:53:33;;;;;;;1.83;1.40;;;28.00;99.90;;;;;;10476133;28;20230;-84
2023/07/08 14:58:55;;;;;;;4.65;1.55;;;28.00;99.90;;;;;;10460574;28;20227;-84
2023/07/08 15:04:18;;;;;;;5.90;2.15;;;27.90;99.90;;;;;;10459011;28;20184;-84
2023/07/08 15:09:39;;;;;;;5.95;1.77;;;27.70;99.90;;;;;;10465831;28;20557;-83
2023/07/08 15:15:01;;;;;;;3.03;1.42;;;27.70;99.90;;;;;;10478957;28;20187;-84
2023/07/08 15:20:23;;;;;;;1.60;1.48;;;27.60;99.90;;;;;;10485739;28;20225;-84
2023/07/08 15:25:47;;;;;;;2.88;2.00;;;27.40;99.90;;;;;;10470667;28;20514;-84
2023/07/08 15:31:11;;;;;;;2.20;1.73;;;27.20;99.90;;;;;;10476828;28;20199;-84
2023/07/08 15:36:33;;;;;;;4.25;1.90;;;27.10;99.90;;;;;;10449775;28;20202;-85
2023/07/08 15:41:55;;;;;;;1.90;1.65;;;;;;;;;;10466156;28;20195;-83
2023/07/08 15:47:16;;;;;;;4.18;1.58;;;26.90;99.90;;;;;;10448798;28;20526;-84
2023/07/08 15:52:38;;;;;;;2.88;1.45;;;26.90;1.00;;;;;;10465505;28;20648;-84
2023/07/08 15:58:31;;;;;;;4.88;1.58;;;26.70;1.00;;;;;;10468119;28;20203;-84
2023/07/08 16:03:52;;;;;;;2.35;1.67;;;26.60;1.00;;;;;;10439130;28;20200;-84
2023/07/08 16:09:14;;;;;;;2.53;1.50;;;26.40;99.90;;;;;;10449250;28;20334;-84
2023/07/08 16:14:36;;;;;;;2.55;1.92;;;26.40;99.90;;;;;;10479854;28;20241;-83
2023/07/08 16:19:59;;;;;;;2.13;1.60;;;26.10;99.90;;;;;;10466372;28;20196;-84
2023/07/08 16:25:32;;;;;;;2.20;1.80;;;26.00;1.00;;;;;;10466299;28;20429;-84
2023/07/08 16:30:57;;;;;;;1.67;1.58;;;;;;;;;;10466028;28;20398;-83
2023/07/08 16:36:21;;;;;;;3.47;1.58;;;;;;;;;;10486794;28;20268;-84
2023/07/08 16:41:42;;;;;;;2.25;1.75;;;;;;;;;;10491068;28;20275;-84
2023/07/08 16:47:08;;;;;;;2.38;1.55;;;;;;;;;;10475320;28;20227;-83
2023/07/08 16:52:31;;;;;;;1.95;1.50;;;;;;;;;;10440710;28;20224;-85
2023/07/08 16:57:53;;;;;;;1.83;1.30;;;;;;;;;;10440060;28;20280;-84
2023/07/08 17:03:17;;;;;;;4.15;1.95;;;;;;;;;;10449506;28;20200;-83
2023/07/08 17:08:39;;;;;;;4.15;2.00;;;;;;;;;;10464748;28;20466;-84
2023/07/08 17:14:00;;;;;;;4.45;1.90;;;25.40;1.00;;;;;;10477959;28;20233;-84
2023/07/08 17:19:22;;;;;;;4.15;2.20;;;25.30;1.00;;;;;;10459935;28;20212;-84
2023/07/08 17:24:43;;;;;;;2.85;1.77;;;25.10;99.90;;;;;;10464088;28;20195;-84
2023/07/08 17:30:06;;;;;;;4.68;1.63;;;25.00;99.90;;;;;;10477656;28;20219;-84
2023/07/08 17:35:28;;;;;;;2.33;1.70;;;24.80;99.90;;;;;;10417908;28;20645;-84
2023/07/08 17:40:51;;;;;;;2.42;1.63;;;24.80;80.30;;;;;;10437530;28;20200;-83
2023/07/08 17:46:17;;;;;;;4.10;1.55;;;24.50;99.90;;;;;;10472573;28;20216;-84
2023/07/08 17:51:40;;;;;;;2.83;1.95;;;24.40;99.90;;;;;;10422008;28;20236;-84
2023/07/08 17:57:02;;;;;;;2.63;1.50;;;24.10;99.90;;;;;;10407721;28;20267;-84
2023/07/08 18:02:25;;;;;;;4.75;2.55;;;23.80;99.90;;;;;;10434615;28;20286;-84
2023/07/08 18:07:51;;;;;;;5.07;2.05;;;23.70;99.90;;;;;;10452613;28;20220;-83
2023/07/08 18:13:20;;;;;;;6.32;2.53;;;23.50;99.90;;;;;;10464252;28;20213;-83
2023/07/08 18:18:43;;;;;;;7.63;2.55;;;23.30;99.90;;;;;;10461474;28;20235;-83
2023/07/08 18:24:10;;;;;;;3.25;1.90;;;23.10;99.90;;;;;;10448449;28;20195;-83
2023/07/08 18:29:32;;;;;;;6.45;2.22;;;;;;;;;;10462545;28;20553;-82
2023/07/08 18:34:54;;;;;;;7.18;2.10;;;;;;;;;;10481698;28;20203;-83
2023/07/08 18:40:24;;;;;;;3.72;2.22;;;22.60;99.90;;;;;;10483468;28;20195;-82
2023/07/08 18:45:48;;;;;;;5.22;2.30;;;22.60;99.90;;;;;;10490026;28;20394;-83
2023/07/08 18:51:25;;;;;;;5.93;2.00;;;22.40;99.90;;;;;;10448060;28;20244;-83
2023/07/08 18:56:48;;;;;;;3.75;2.17;;;22.20;99.90;;;;;;10449860;28;20203;-83
2023/07/08 19:02:33;;;;;;;4.88;2.20;;;22.20;99.90;;;;;;10461581;28;20200;-83
2023/07/08 19:07:55;;;;;;;4.13;2.22;;;;;;;;;;10474484;28;20299;-83
2023/07/08 19:13:21;;;;;;;3.70;2.45;;;21.90;99.90;;;;;;10472060;28;20276;-83
2023/07/08 19:18:45;;;;;;;2.47;2.05;;;21.80;99.90;;;;;;10457624;28;20200;-85
2023/07/08 19:24:12;;;;;;;4.47;2.00;;;21.70;99.90;;;;;;10460738;28;20196;-83
2023/07/08 19:29:38;;;;;;;3.83;2.00;;;21.60;99.90;;;;;;10469136;28;20264;-84
2023/07/08 19:35:01;;;;;;;3.38;2.47;;;21.50;99.90;;;;;;10468267;28;20196;-84
2023/07/08 19:40:26;;;;;;;4.57;2.10;;;21.40;99.90;;;;;;10476519;28;20215;-83
2023/07/08 19:45:48;;;;;;;4.88;2.50;;;22.70;1.00;;;;;;10451161;28;20200;-83
2023/07/08 19:51:10;;;;;;;4.43;2.45;;;21.20;99.90;;;;;;10481180;28;20238;-83
2023/07/08 19:56:33;;;;;;;4.18;2.78;;;21.00;99.90;;;;;;10490336;28;20192;-84
2023/07/08 20:01:59;;;;;;;5.53;2.72;;;20.90;99.90;;;;;;10481287;28;20245;-83
2023/07/08 20:07:20;;;;;;;6.22;2.78;;;20.90;99.90;;;;;;10466838;28;20529;-83
2023/07/08 20:12:42;;;;;;;3.50;2.53;;;;;;;;;;10439860;28;20230;-83
2023/07/08 20:18:05;;;;;;;4.82;2.75;;;;;;;;;;10447186;28;20509;-84
2023/07/08 20:23:27;;;;;;;4.03;2.90;;;;;;;;;;10478525;28;20215;-82
2023/07/08 20:28:49;;;;;;;5.72;3.05;;;;;;;;;;10480186;28;20298;-83
2023/07/08 20:34:17;;;;;;;3.33;2.20;;;;;;;;;;10493918;28;20188;-83
2023/07/08 20:39:39;;;;;;;3.47;2.50;;;;;;;;;;10471963;28;20207;-83
2023/07/08 20:45:01;;;;;;;4.47;3.25;;;;;;;;;;10454045;28;20207;-83
2023/07/08 20:50:23;;;;;;;4.72;3.40;;;;;;;;;;10452339;28;20239;-84
2023/07/08 20:55:47;;;;;;;6.15;3.40;;;20.90;34.20;;;;;;10437687;28;20430;-86
2023/07/08 21:01:09;;;;;;;6.85;3.55;;;20.00;1.00;;;;;;10409825;28;20193;-83
2023/07/08 21:06:32;;;;;;;7.47;3.47;;;19.90;1.00;;;;;;10458610;28;20195;-84
2023/07/08 21:11:55;;;;;;;5.55;3.60;;;19.80;1.00;;;;;;10459444;28;20548;-83
2023/07/08 21:17:19;;;;;;;9.30;3.65;;;;;;;;;;10476591;28;20262;-83
2023/07/08 21:22:42;;;;;;;8.50;3.53;;;19.20;99.90;;;;;;10442763;28;20520;-84
2023/07/08 21:28:04;;;;;;;6.05;4.10;;;19.30;1.00;;;;;;10504972;28;20237;-84
2023/07/08 21:33:28;;;;;;;7.18;3.95;;;19.10;1.00;;;;;;10505204;28;20240;-84
2023/07/08 21:38:52;;;;;;;6.47;4.30;;;19.00;1.00;;;;;;10495134;28;20203;-84
2023/07/08 21:44:16;;;;;;;8.27;4.55;;;18.90;1.00;;;;;;10483907;28;20211;-83
2023/07/08 21:49:38;;;;;;;6.90;4.30;;;18.80;1.00;;;;;;10457161;28;20306;-83
2023/07/08 21:55:00;;;;;;;6.70;4.15;;;;;;;;;;10475139;28;20249;-83
2023/07/08 22:00:22;;;;;;;6.68;3.90;;;18.70;1.00;;;;;;10449061;28;20241;-83
2023/07/08 22:05:59;;;;;;;7.22;4.70;;;18.60;99.90;;;;;;10473423;28;20192;-83
2023/07/08 22:11:30;;;;;;;8.48;4.65;;;18.60;99.90;;;;;;10421217;28;20225;-83
2023/07/08 22:16:51;;;;;;;6.43;4.40;;;18.60;99.90;;;;;;10454002;28;20417;-83
2023/07/08 22:22:22;;;;;;;11.40;5.55;;;18.40;1.00;;;;;;10442939;28;20196;-83
2023/07/08 22:27:44;;;;;;;8.48;5.05;;;18.20;1.00;;;;;;10476808;28;20223;-84
2023/07/08 22:33:08;;;;;;;9.25;4.65;;;18.20;1.00;;;;;;10476693;28;20374;-83
2023/07/08 22:38:29;;;;;;;7.07;4.07;;;18.20;1.00;;;;;;10483400;28;20282;-83
2023/07/08 22:43:52;;;;;;;6.57;4.18;;;18.10;1.00;;;;;;10509566;28;20254;-83
2023/07/08 22:49:23;;;;;;;8.10;4.85;;;18.10;1.00;;;;;;10469710;28;20289;-83
2023/07/08 22:54:46;;;;;;;8.90;4.78;;;18.00;1.00;;;;;;10480222;28;20499;-83
2023/07/08 23:00:10;;;;;;;7.43;5.03;;;17.90;1.00;;;;;;10484036;28;20211;-83
2023/07/08 23:05:33;;;;;;;10.60;6.45;;;17.90;1.00;;;;;;10435596;28;20211;-83
2023/07/08 23:10:55;;;;;;;10.55;5.93;;;17.80;47.40;;;;;;10441727;28;20255;-83
2023/07/08 23:16:16;;;;;;;11.48;6.45;;;17.70;65.70;;;;;;10455926;28;20235;-82
2023/07/08 23:21:40;;;;;;;8.98;5.72;;;17.50;99.60;;;;;;10449424;28;20254;-83
2023/07/08 23:27:04;;;;;;;9.70;5.97;;;17.40;99.90;;;;;;10469094;28;20206;-83
2023/07/08 23:32:26;;;;;;;9.25;6.50;;;17.30;99.90;;;;;;10467627;28;20188;-83
2023/07/08 23:37:48;;;;;;;8.65;5.45;;;17.30;99.90;;;;;;10509792;28;20402;-83
2023/07/08 23:43:16;;;;;;;12.98;6.03;;;17.20;99.90;;;;;;10482714;28;20195;-83
2023/07/08 23:48:38;;;;;;;7.63;4.97;;;;;;;;;;10471234;28;20250;-84
2023/07/08 23:53:59;;;;;;;9.73;5.55;;;17.10;99.90;;;;;;10466893;28;20206;-84
2023/07/08 23:59:24;;;;;;;10.15;5.68;;;17.10;99.90;;;;;;10467567;28;20604;-82
